Dublin, Virginia
Current Conditions -  °F | °C
As of 4:55 AM on Friday 28 Nov 2014 (Local Time) from KPSK Reporting Station
Broken Clouds Broken Clouds  
Wind Chill: 18°   Ceiling: 3100
Heat Index: 28°   Visibility: 10mi
Dew Point: 18°   Wind: 10mph
Humidity: 67%   Direction: 300°WNW
Pressure: 30.25"   Gusts: NA
Location:  37.11°N, 80.69°W
Report Text: KPSK 280955Z AUTO 30009KT 10SM BKN031 M02/M08 A3025 RMK AO2 T10241078
Loading
Personal Weather Stations






























Interactive Weather Map New forecast layout! Learn more

10-Day Weather Forecast

Advertisements
Track Severe Weather on mobile